createdAt,value
2022-09-07T00:00:51.688Z,43.00
2022-09-07T00:05:54.650Z,43.40
2022-09-07T00:10:59.760Z,43.00
2022-09-07T00:16:07.718Z,43.30
2022-09-07T00:21:12.394Z,43.60
2022-09-07T00:26:17.812Z,43.40
2022-09-07T00:31:23.881Z,43.50
2022-09-07T00:36:27.384Z,43.90
2022-09-07T00:41:30.376Z,43.70
2022-09-07T00:46:36.468Z,44.00
2022-09-07T00:51:43.377Z,44.20
2022-09-07T00:56:48.263Z,44.40
2022-09-07T01:01:53.054Z,44.40
2022-09-07T01:06:57.171Z,44.50
2022-09-07T01:12:02.078Z,44.60
2022-09-07T01:17:11.407Z,44.80
2022-09-07T01:22:35.589Z,45.90
2022-09-07T01:28:10.761Z,46.40
2022-09-07T01:33:29.147Z,47.50
2022-09-07T01:38:38.648Z,46.90
2022-09-07T01:43:49.649Z,47.10
2022-09-07T01:48:55.341Z,46.40
2022-09-07T01:54:02.046Z,46.30
2022-09-07T01:59:09.886Z,46.30
2022-09-07T02:04:17.230Z,47.50
2022-09-07T02:09:26.085Z,46.80
2022-09-07T02:14:34.972Z,46.90
2022-09-07T02:19:43.377Z,47.20
2022-09-07T02:24:49.766Z,47.30
2022-09-07T02:29:54.222Z,47.40
2022-09-07T02:34:57.172Z,47.40
2022-09-07T02:40:00.904Z,47.10
2022-09-07T02:45:07.992Z,47.10
2022-09-07T02:50:29.927Z,47.70
2022-09-07T02:55:43.781Z,49.00
2022-09-07T03:00:54.298Z,49.40
2022-09-07T03:06:02.141Z,48.80
2022-09-07T03:11:06.110Z,48.40
2022-09-07T03:16:14.307Z,47.80
2022-09-07T03:21:17.361Z,48.60
2022-09-07T03:26:25.044Z,47.70
2022-09-07T03:31:29.306Z,50.70
2022-09-07T03:36:32.976Z,50.10
2022-09-07T03:41:35.923Z,50.10
2022-09-07T03:46:40.268Z,49.70
2022-09-07T03:51:43.240Z,50.50
2022-09-07T03:56:46.188Z,50.10
2022-09-07T04:01:50.544Z,50.10
2022-09-07T04:06:53.495Z,50.80
2022-09-07T04:11:56.552Z,50.30
2022-09-07T04:17:00.889Z,50.20
2022-09-07T04:22:03.916Z,50.60
2022-09-07T04:27:06.962Z,50.20
2022-09-07T04:32:15.563Z,50.30
2022-09-07T04:37:18.827Z,50.40
2022-09-07T04:42:22.016Z,50.00
2022-09-07T04:47:26.431Z,50.30
2022-09-07T04:52:29.445Z,50.80
2022-09-07T04:57:32.360Z,50.40
2022-09-07T05:02:37.911Z,50.30
2022-09-07T05:07:40.939Z,50.90
2022-09-07T05:12:43.858Z,50.60
2022-09-07T05:17:48.150Z,50.70
2022-09-07T05:22:59.406Z,51.10
2022-09-07T05:28:02.663Z,51.40
2022-09-07T05:33:08.137Z,50.90
2022-09-07T05:38:11.124Z,51.00
2022-09-07T05:43:14.060Z,50.80
2022-09-07T05:48:18.325Z,50.90
2022-09-07T05:53:22.115Z,51.00
2022-09-07T05:58:25.063Z,50.90
2022-09-07T06:03:30.078Z,50.90
2022-09-07T06:08:34.326Z,51.20
2022-09-07T06:13:38.204Z,51.10
2022-09-07T06:18:44.255Z,51.20
2022-09-07T06:23:48.553Z,51.70
2022-09-07T06:28:55.906Z,51.50
2022-09-07T06:34:02.016Z,52.30
2022-09-07T06:39:05.382Z,51.90
2022-09-07T06:44:08.453Z,51.90
2022-09-07T06:49:12.784Z,52.00
2022-09-07T06:59:39.700Z,52.30
2022-09-07T07:04:43.970Z,52.40
2022-09-07T07:09:46.880Z,52.60
2022-09-07T07:14:49.816Z,52.50
2022-09-07T07:19:54.088Z,52.60
2022-09-07T07:24:59.678Z,52.90
2022-09-07T07:30:02.646Z,52.80
2022-09-07T07:35:08.819Z,52.80
2022-09-07T07:50:46.396Z,52.80
2022-09-07T07:55:49.361Z,53.00
2022-09-07T08:00:56.313Z,52.90
2022-09-07T08:06:07.990Z,52.90
2022-09-07T08:11:12.625Z,53.30
2022-09-07T08:16:15.542Z,52.90
2022-09-07T08:21:19.871Z,52.80
2022-09-07T08:26:22.750Z,52.80
2022-09-07T08:31:25.726Z,52.70
2022-09-07T08:36:31.745Z,52.40
2022-09-07T08:41:55.159Z,52.20
2022-09-07T08:47:01.460Z,52.30
2022-09-07T08:52:11.887Z,52.30
2022-09-07T08:57:21.693Z,52.70
2022-09-07T09:02:27.992Z,53.10
2022-09-07T09:07:42.364Z,52.70
2022-09-07T09:13:11.194Z,52.90
2022-09-07T09:18:25.069Z,52.90
2022-09-07T09:23:35.432Z,52.50
2022-09-07T09:28:39.613Z,52.50
2022-09-07T09:33:42.658Z,52.50
2022-09-07T09:38:46.917Z,52.50
2022-09-07T09:43:55.050Z,52.40
2022-09-07T09:49:01.144Z,52.80
2022-09-07T09:54:20.457Z,52.50
2022-09-07T10:04:50.516Z,52.00
2022-09-07T10:09:56.239Z,51.80
2022-09-07T10:15:00.774Z,52.30
2022-09-07T10:20:36.795Z,52.00
2022-09-07T10:25:44.580Z,51.70
2022-09-07T10:31:00.149Z,51.10
2022-09-07T10:36:11.550Z,50.50
2022-09-07T10:41:18.978Z,49.90
2022-09-07T10:52:14.208Z,49.60
2022-09-07T10:57:35.276Z,49.10
2022-09-07T11:08:27.114Z,48.30
2022-09-07T11:13:50.224Z,49.00
2022-09-07T11:24:32.308Z,48.00
2022-09-07T11:29:44.619Z,47.40
2022-09-07T11:34:52.197Z,46.90
2022-09-07T11:40:00.226Z,46.90
2022-09-07T11:45:13.879Z,46.80
2022-09-07T11:50:18.966Z,46.20
2022-09-07T11:55:28.461Z,45.90
2022-09-07T12:00:45.425Z,45.50
2022-09-07T12:06:03.707Z,45.20
2022-09-07T12:11:36.572Z,45.40
2022-09-07T12:17:01.639Z,43.90
2022-09-07T12:22:05.402Z,43.60
2022-09-07T12:27:12.524Z,43.00
2022-09-07T12:32:57.055Z,42.30
2022-09-07T12:38:03.054Z,42.50
2022-09-07T12:43:35.726Z,41.80
2022-09-07T12:48:50.150Z,41.60
2022-09-07T12:54:05.525Z,41.30
2022-09-07T12:59:28.497Z,41.40
2022-09-07T13:04:46.234Z,41.30
2022-09-07T13:09:57.665Z,40.70
2022-09-07T13:15:01.586Z,40.50
2022-09-07T13:20:08.061Z,40.60
2022-09-07T13:25:47.640Z,39.90
2022-09-07T13:31:06.024Z,40.00
2022-09-07T13:36:21.846Z,39.80
2022-09-07T13:41:29.206Z,38.50
2022-09-07T13:46:41.920Z,38.40
2022-09-07T13:51:53.150Z,38.20
2022-09-07T13:57:04.241Z,38.10
2022-09-07T14:02:23.148Z,38.60
2022-09-07T14:07:28.029Z,38.80
2022-09-07T14:12:32.366Z,38.20
2022-09-07T14:17:35.500Z,37.90
2022-09-07T14:22:40.648Z,37.50
2022-09-07T14:27:48.228Z,37.50
2022-09-07T14:32:53.844Z,37.20
2022-09-07T14:38:06.857Z,37.20
2022-09-07T14:43:29.439Z,37.10
2022-09-07T14:48:42.657Z,37.10
2022-09-07T14:53:48.711Z,36.30
2022-09-07T14:58:53.797Z,36.50
2022-09-07T15:03:58.979Z,36.60
2022-09-07T15:09:02.178Z,36.80
2022-09-07T15:14:12.331Z,36.90
2022-09-07T15:19:31.412Z,36.70
2022-09-07T15:24:34.519Z,36.70
2022-09-07T15:29:39.867Z,36.90
2022-09-07T15:34:43.930Z,36.60
2022-09-07T15:39:47.062Z,36.80
2022-09-07T15:44:51.366Z,36.90
2022-09-07T15:49:54.991Z,37.00
2022-09-07T15:54:57.974Z,37.10
2022-09-07T16:00:02.430Z,37.00
2022-09-07T16:05:15.348Z,37.10
2022-09-07T16:10:18.548Z,37.30
2022-09-07T16:15:26.827Z,37.50
2022-09-07T16:20:33.102Z,37.40
2022-09-07T16:25:36.273Z,37.50
2022-09-07T16:30:41.656Z,37.10
2022-09-07T16:35:44.582Z,36.70
2022-09-07T16:40:47.603Z,36.70
2022-09-07T16:46:02.878Z,36.80
2022-09-07T16:51:06.703Z,36.90
2022-09-07T16:56:11.138Z,37.20
2022-09-07T17:01:18.157Z,37.30
2022-09-07T17:06:23.620Z,37.00
2022-09-07T17:11:28.215Z,37.20
2022-09-07T17:16:33.777Z,37.30
2022-09-07T17:21:38.876Z,37.30
2022-09-07T17:26:42.925Z,36.80
2022-09-07T17:37:10.331Z,36.90
2022-09-07T17:42:13.345Z,37.00
2022-09-07T17:47:17.636Z,37.00
2022-09-07T17:52:20.642Z,37.10
2022-09-07T17:57:23.603Z,37.40
2022-09-07T18:02:27.981Z,37.40
2022-09-07T18:07:32.762Z,37.30
2022-09-07T18:12:35.764Z,36.90
2022-09-07T18:17:40.016Z,37.00
2022-09-07T18:22:42.919Z,37.30
2022-09-07T18:29:02.701Z,37.50
2022-09-07T18:33:10.005Z,37.80
2022-09-07T18:38:12.979Z,38.00
2022-09-07T18:43:16.339Z,37.50
2022-09-07T18:48:20.864Z,37.70
2022-09-07T18:53:24.200Z,37.90
2022-09-07T18:58:27.112Z,37.90
2022-09-07T19:03:31.485Z,38.00
2022-09-07T19:08:36.326Z,38.20
2022-09-07T19:13:39.885Z,38.40
2022-09-07T19:18:48.426Z,38.40
2022-09-07T19:23:56.300Z,38.50
2022-09-07T19:29:01.285Z,38.20
2022-09-07T19:34:05.535Z,38.30
2022-09-07T19:39:08.413Z,38.60
2022-09-07T19:44:11.372Z,38.50
2022-09-07T19:49:15.656Z,38.50
2022-09-07T19:54:19.111Z,38.60
2022-09-07T19:59:22.143Z,38.50
2022-09-07T20:04:28.114Z,38.70
2022-09-07T20:09:31.101Z,38.80
2022-09-07T20:14:34.066Z,38.90
2022-09-07T20:19:38.315Z,39.10
2022-09-07T20:24:41.205Z,39.10
2022-09-07T20:29:44.085Z,39.00
2022-09-07T20:34:48.306Z,39.10
2022-09-07T20:39:51.216Z,39.00
2022-09-07T20:44:54.733Z,39.20
2022-09-07T20:49:59.008Z,39.30
2022-09-07T20:55:01.885Z,39.50
2022-09-07T21:00:05.807Z,39.60
2022-09-07T21:05:10.876Z,39.70
2022-09-07T21:10:14.411Z,39.90
2022-09-07T21:15:17.433Z,40.00
2022-09-07T21:20:22.770Z,39.90
2022-09-07T21:25:25.694Z,40.10
2022-09-07T21:30:28.566Z,40.00
2022-09-07T21:35:33.876Z,40.00
2022-09-07T21:40:41.304Z,40.20
2022-09-07T21:45:44.252Z,41.30
2022-09-07T21:50:48.473Z,40.50
2022-09-07T21:55:56.291Z,40.90
2022-09-07T22:01:00.629Z,41.20
2022-09-07T22:06:05.232Z,40.90
2022-09-07T22:11:09.989Z,41.30
2022-09-07T22:16:13.762Z,41.30
2022-09-07T22:21:19.750Z,41.40
2022-09-07T22:26:25.472Z,41.60
2022-09-07T22:31:30.083Z,41.50
2022-09-07T22:36:36.539Z,41.40
2022-09-07T22:41:40.858Z,41.70
2022-09-07T22:46:45.500Z,41.60
2022-09-07T22:51:49.813Z,41.60
2022-09-07T22:56:52.821Z,41.80
2022-09-07T23:01:55.855Z,41.80
2022-09-07T23:07:00.161Z,41.90
2022-09-07T23:12:04.058Z,42.00
2022-09-07T23:17:07.003Z,42.10
2022-09-07T23:22:11.253Z,42.20
2022-09-07T23:27:14.169Z,42.20
2022-09-07T23:32:17.156Z,42.10
2022-09-07T23:37:21.660Z,42.10
2022-09-07T23:42:24.828Z,42.20
2022-09-07T23:47:27.717Z,42.00
2022-09-07T23:52:32.459Z,42.40
2022-09-07T23:57:35.463Z,42.70
